createdAt,value
2023-02-02T00:06:19.142Z,7.16
2023-02-02T00:21:09.155Z,7.10
2023-02-02T00:35:58.922Z,6.94
2023-02-02T00:50:49.718Z,6.87
2023-02-02T01:05:39.744Z,6.84
2023-02-02T01:20:30.142Z,6.85
2023-02-02T01:35:20.143Z,6.89
2023-02-02T01:50:10.521Z,6.89
2023-02-02T02:05:01.061Z,6.88
2023-02-02T02:20:21.343Z,6.86
2023-02-02T02:35:17.957Z,6.85
2023-02-02T02:50:11.515Z,6.82
2023-02-02T03:05:01.792Z,6.71
2023-02-02T03:19:52.723Z,6.66
2023-02-02T03:34:43.833Z,6.65
2023-02-02T03:49:34.729Z,6.63
2023-02-02T04:04:24.914Z,6.63
2023-02-02T04:19:15.273Z,6.62
2023-02-02T04:34:05.844Z,6.65
2023-02-02T04:48:56.556Z,6.74
2023-02-02T05:03:47.326Z,6.78
2023-02-02T05:18:37.084Z,6.85
2023-02-02T05:33:27.846Z,6.84
2023-02-02T05:48:18.161Z,6.87
2023-02-02T06:03:09.142Z,6.96
2023-02-02T06:17:59.277Z,6.97
2023-02-02T06:32:49.661Z,7.04
2023-02-02T06:47:40.357Z,6.95
2023-02-02T07:02:30.292Z,6.88
2023-02-02T07:17:20.562Z,6.97
2023-02-02T07:32:10.569Z,7.05
2023-02-02T07:47:01.645Z,7.13
2023-02-02T08:01:52.203Z,7.18
2023-02-02T08:16:42.833Z,7.29
2023-02-02T08:31:36.274Z,7.42
2023-02-02T08:46:30.411Z,7.67
2023-02-02T09:01:26.744Z,7.90
2023-02-02T09:16:21.351Z,7.91
2023-02-02T09:31:11.799Z,8.03
2023-02-02T09:46:14.600Z,8.10
2023-02-02T10:01:14.680Z,8.21
2023-02-02T10:16:13.134Z,8.52
2023-02-02T10:31:06.493Z,8.50
2023-02-02T10:45:57.896Z,8.57
2023-02-02T11:00:51.396Z,8.50
2023-02-02T11:15:45.194Z,8.58
2023-02-02T11:30:34.832Z,8.57
2023-02-02T11:45:37.434Z,8.61
2023-02-02T12:00:32.472Z,8.67
2023-02-02T12:15:47.794Z,8.83
2023-02-02T12:30:56.500Z,8.94
2023-02-02T12:45:51.801Z,9.05
2023-02-02T13:00:54.491Z,8.93
2023-02-02T13:15:49.660Z,8.80
2023-02-02T13:30:41.066Z,8.73
2023-02-02T13:45:43.642Z,8.72
2023-02-02T14:00:57.988Z,8.73
2023-02-02T14:15:41.434Z,8.75
2023-02-02T14:30:35.160Z,8.78
2023-02-02T14:45:40.608Z,8.81
2023-02-02T15:00:34.290Z,8.83
2023-02-02T15:15:27.243Z,8.84
2023-02-02T15:30:20.152Z,8.86
2023-02-02T15:45:28.298Z,8.82
2023-02-02T16:00:30.760Z,8.78
2023-02-02T16:15:24.833Z,8.70
2023-02-02T16:30:29.348Z,8.53
2023-02-02T16:45:34.125Z,8.47
2023-02-02T17:00:27.934Z,8.43
2023-02-02T17:15:18.441Z,8.43
2023-02-02T17:30:15.092Z,8.46
2023-02-02T17:45:09.404Z,8.44
2023-02-02T18:00:01.247Z,8.42
2023-02-02T18:29:42.907Z,8.43
2023-02-02T18:44:33.895Z,8.39
2023-02-02T18:59:24.593Z,8.35
2023-02-02T19:14:17.933Z,8.30
2023-02-02T19:44:24.258Z,8.15
2023-02-02T19:59:14.282Z,8.15
2023-02-02T20:14:18.531Z,8.19
2023-02-02T20:29:13.980Z,8.20
2023-02-02T20:44:07.004Z,8.25
2023-02-02T20:58:58.111Z,8.29
2023-02-02T21:13:47.967Z,8.35
2023-02-02T21:28:38.492Z,8.29
2023-02-02T21:43:28.267Z,8.12
2023-02-02T21:58:27.692Z,7.97
2023-02-02T22:13:23.864Z,7.86
2023-02-02T22:28:23.038Z,7.78
2023-02-02T22:43:17.164Z,7.76
2023-02-02T22:58:08.076Z,7.73
2023-02-02T23:12:58.912Z,7.73
2023-02-02T23:27:49.718Z,7.74
2023-02-02T23:42:40.176Z,7.76
2023-02-02T23:57:31.039Z,7.71
